Time;durP1;ratioP1;P1;durP2;ratioP2;P2;SDS_P1;SDS_P2;PMS_P1;PMS_P2;Temp;Humidity;BMP_temperature;BMP_pressure;BME280_temperature;BME280_humidity;BME280_pressure;Samples;Min_cycle;Max_cycle;Signal;HPM_P1;HPM_P2
2022/09/30 00:00:36;;;;;;;8.30;4.20;;;;;;;14.27;77.14;98109.48;104700;1272;75612;-24
2022/09/30 00:03:04;;;;;;;4.50;3.40;;;;;;;13.88;77.29;98111.13;104706;1273;62503;-24
2022/09/30 00:05:31;;;;;;;2.40;1.60;;;;;;;13.49;78.19;98113.12;104652;1273;63049;-24
2022/09/30 00:07:58;;;;;;;4.90;3.20;;;;;;;13.71;79.22;98113.18;104692;1273;75646;-24
2022/09/30 00:10:25;;;;;;;2.30;2.10;;;;;;;14.12;78.65;98117.94;104874;1273;77508;-24
2022/09/30 00:12:52;;;;;;;2.80;2.30;;;;;;;14.13;77.81;98118.40;105086;1270;75232;-24
2022/09/30 00:15:19;;;;;;;2.30;1.90;;;;;;;13.91;77.80;98116.45;105013;1271;63416;-24
2022/09/30 00:17:46;;;;;;;2.80;2.30;;;;;;;13.64;78.41;98120.10;105072;1273;63127;-24
2022/09/30 00:20:13;;;;;;;6.70;3.00;;;;;;;13.37;78.64;98121.90;105072;1273;76497;-24
2022/09/30 00:22:40;;;;;;;1.90;1.40;;;;;;;13.11;78.92;98126.20;105059;1271;75866;-24
2022/09/30 00:25:08;;;;;;;2.00;1.70;;;;;;;13.39;79.31;98129.20;105031;1270;73294;-24
2022/09/30 00:27:35;;;;;;;4.40;2.00;;;;;;;13.77;78.53;98134.00;104788;1273;61629;-24
2022/09/30 00:30:03;;;;;;;2.20;1.80;;;;;;;13.73;77.90;98135.31;105091;1271;63068;-24
2022/09/30 00:32:30;;;;;;;2.80;2.10;;;;;;;13.47;78.46;98141.25;104903;1270;76635;-24
2022/09/30 00:34:57;;;;;;;2.90;2.60;;;;;;;13.17;78.98;98148.45;104748;1273;76006;-24
2022/09/30 00:37:24;;;;;;;5.70;2.90;;;;;;;12.87;79.01;98159.64;105052;1273;73503;-24
2022/09/30 00:39:50;;;;;;;1.80;1.50;;;;;;;12.58;80.54;98162.05;105074;1270;63613;-24
2022/09/30 00:42:18;;;;;;;2.00;1.50;;;;;;;12.92;81.25;98162.52;104960;1273;63369;-24
2022/09/30 00:44:59;;;;;;;2.90;1.80;;;;;;;13.38;79.84;98162.41;105092;1273;76405;-24
2022/09/30 00:47:45;;;;;;;2.70;1.80;;;;;;;13.39;79.38;98157.80;104951;1270;76029;-24
2022/09/30 00:50:27;;;;;;;2.70;2.20;;;;;;;13.02;78.54;98161.09;105128;1271;75100;-24
2022/09/30 00:53:04;;;;;;;4.20;2.40;;;;;;;12.57;82.14;98166.64;104916;1268;63266;-24
2022/09/30 00:55:43;;;;;;;1.70;1.40;;;;;;;12.27;84.83;98171.48;104976;1270;61838;-24
2022/09/30 00:58:13;;;;;;;2.20;2.00;;;;;;;12.67;84.27;98176.94;105113;1271;76547;-25
2022/09/30 01:00:40;;;;;;;2.60;1.90;;;;;;;13.03;82.40;98180.79;105165;1271;77037;-25
2022/09/30 01:03:07;;;;;;;2.60;1.90;;;;;;;12.99;81.49;98185.83;105152;1270;74458;-24
2022/09/30 01:05:34;;;;;;;2.90;2.20;;;;;;;12.78;81.30;98186.86;105174;1270;61854;-24
2022/09/30 01:08:02;;;;;;;2.70;2.40;;;;;;;12.49;81.62;98191.36;105170;1270;63540;-24
2022/09/30 01:10:29;;;;;;;2.00;1.50;;;;;;;12.25;82.26;98185.27;105101;1270;75538;-24
2022/09/30 01:12:56;;;;;;;2.10;1.70;;;;;;;12.58;82.27;98188.67;105144;1270;77676;-24
2022/09/30 01:15:30;;;;;;;2.80;1.90;;;;;;;13.02;81.17;98187.65;104858;1271;74468;-24
2022/09/30 01:18:03;;;;;;;1.90;1.70;;;;;;;13.02;80.49;98190.42;104836;1271;62037;-24
2022/09/30 01:20:30;;;;;;;2.60;2.00;;;;;;;12.78;79.87;98198.13;104638;1271;61896;-24
2022/09/30 01:23:34;;;;;;;2.40;1.80;;;;;;;12.43;80.73;98200.52;105137;1270;76831;-24
2022/09/30 01:26:13;;;;;;;3.40;2.70;;;;;;;11.98;81.56;98202.43;104989;1271;75940;-24
2022/09/30 01:29:00;;;;;;;1.90;1.50;;;;;;;11.68;83.22;98205.14;104695;1268;75577;-24
2022/09/30 01:31:43;;;;;;;2.60;2.20;;;;;;;12.13;83.61;98216.05;104783;1270;63078;-23
2022/09/30 01:34:49;;;;;;;3.10;2.80;;;;;;;12.47;82.82;98218.55;104878;1271;61735;-24
2022/09/30 01:37:51;;;;;;;3.70;3.20;;;;;;;12.37;83.12;98224.74;104345;1271;75761;-24
2022/09/30 01:40:29;;;;;;;3.80;3.20;;;;;;;11.96;84.96;98223.41;105156;1271;76881;-24
2022/09/30 01:43:10;;;;;;;3.10;2.60;;;;;;;11.62;86.69;98223.34;104952;1268;75367;-24
2022/09/30 01:45:51;;;;;;;4.30;3.30;;;;;;;12.00;86.40;98220.80;104843;1270;61982;-24
2022/09/30 01:48:24;;;;;;;5.90;3.80;;;;;;;12.25;85.09;98218.36;104772;1271;61995;-24
2022/09/30 01:50:53;;;;;;;4.10;3.30;;;;;;;12.16;85.08;98221.84;104722;1270;76778;-24
2022/09/30 01:53:44;;;;;;;6.70;4.10;;;;;;;11.92;85.29;98227.46;104838;1270;76932;-24
2022/09/30 01:56:13;;;;;;;4.20;2.80;;;;;;;11.67;86.51;98231.14;105104;1271;75462;-24
2022/09/30 01:58:54;;;;;;;5.80;3.20;;;;;;;12.06;85.34;98236.73;105044;1271;63051;-24
2022/09/30 02:01:30;;;;;;;4.10;3.20;;;;;;;12.37;83.52;98236.77;105151;1271;62956;-24
2022/09/30 02:04:02;;;;;;;4.80;3.90;;;;;;;12.25;82.94;98229.67;105040;1270;76689;-24
2022/09/30 02:06:32;;;;;;;7.80;4.20;;;;;;;11.95;83.87;98227.88;105117;1272;77309;-23
2022/09/30 02:09:06;;;;;;;5.50;4.00;;;;;;;11.67;84.96;98229.80;105036;1273;75688;-24
2022/09/30 02:11:35;;;;;;;4.10;2.50;;;;;;;11.47;86.67;98232.77;104937;1270;64428;-23
2022/09/30 02:14:51;;;;;;;5.50;2.60;;;;;;;12.00;85.63;98234.32;104812;1270;61965;-23
2022/09/30 02:17:22;;;;;;;4.30;3.60;;;;;;;12.58;82.48;98233.89;104223;1280;76982;-24
2022/09/30 02:20:00;;;;;;;4.00;3.10;;;;;;;12.50;81.99;98236.13;104129;1280;76038;-24
2022/09/30 02:22:33;;;;;;;3.80;3.00;;;;;;;12.21;82.13;98234.59;104217;1279;74407;-24
2022/09/30 02:25:01;;;;;;;4.70;3.40;;;;;;;11.88;82.78;98239.42;104470;1279;61748;-24
2022/09/30 02:27:41;;;;;;;4.40;2.50;;;;;;;11.56;84.38;98240.63;104442;1279;63107;-24
2022/09/30 02:30:09;;;;;;;4.30;3.30;;;;;;;11.87;84.30;98246.30;104530;1280;76669;-24
2022/09/30 02:32:58;;;;;;;3.90;3.30;;;;;;;12.18;82.54;98252.55;104403;1279;77079;-24
2022/09/30 02:35:26;;;;;;;4.90;3.60;;;;;;;12.03;82.44;98255.30;104557;1279;73250;-24
2022/09/30 02:37:56;;;;;;;4.50;3.50;;;;;;;11.79;82.81;98254.17;104554;1279;63118;-24
2022/09/30 02:40:35;;;;;;;5.20;3.90;;;;;;;11.46;83.82;98256.36;104519;1279;63317;-24
2022/09/30 02:43:03;;;;;;;5.50;2.70;;;;;;;11.15;85.30;98261.55;104372;1279;76322;-24
2022/09/30 02:45:31;;;;;;;4.40;3.00;;;;;;;11.52;85.41;98259.73;104246;1279;76029;-24
2022/09/30 02:48:12;;;;;;;5.00;3.30;;;;;;;11.95;83.08;98262.70;104175;1279;75407;-24
2022/09/30 02:50:50;;;;;;;5.30;3.70;;;;;;;11.92;82.82;98265.05;104259;1276;63178;-23
2022/09/30 02:53:38;;;;;;;3.80;3.30;;;;;;;11.75;83.21;98269.56;104762;1271;62833;-24
2022/09/30 02:56:37;;;;;;;6.40;3.80;;;;;;;11.49;83.62;98275.87;105042;1272;76590;-24
2022/09/30 02:59:04;;;;;;;3.30;2.30;;;;;;;11.22;84.04;98279.73;105016;1270;75622;-24
2022/09/30 03:01:31;;;;;;;3.90;3.00;;;;;;;11.53;83.42;98286.28;104986;1273;75487;-24
2022/09/30 03:04:04;;;;;;;4.90;3.90;;;;;;;11.70;82.48;98293.81;104970;1270;61837;-24
2022/09/30 03:06:31;;;;;;;4.40;3.30;;;;;;;11.49;83.72;98291.69;104811;1270;61971;-24
2022/09/30 03:08:58;;;;;;;4.20;3.50;;;;;;;11.22;85.18;98284.17;104801;1272;76489;-24
2022/09/30 03:11:26;;;;;;;6.80;4.10;;;;;;;10.97;86.24;98285.39;104846;1271;75960;-24
2022/09/30 03:14:08;;;;;;;2.40;2.20;;;;;;;10.84;87.02;98285.20;104830;1271;75390;-24
2022/09/30 03:16:47;;;;;;;4.10;3.10;;;;;;;11.31;86.33;98284.61;105034;1273;63373;-24
2022/09/30 03:19:23;;;;;;;5.00;3.90;;;;;;;11.71;84.54;98294.11;104938;1271;62008;-24
2022/09/30 03:22:10;;;;;;;4.80;3.70;;;;;;;11.61;84.62;98302.16;105057;1271;75310;-24
2022/09/30 03:25:02;;;;;;;4.70;3.50;;;;;;;11.38;85.81;98309.81;105131;1270;77313;-24
2022/09/30 03:27:48;;;;;;;4.30;3.40;;;;;;;11.09;87.76;98307.85;105092;1271;75387;-24
2022/09/30 03:30:17;;;;;;;2.80;2.50;;;;;;;11.03;88.76;98308.05;104747;1274;64905;-24
2022/09/30 03:32:54;;;;;;;3.60;3.00;;;;;;;11.54;87.37;98304.10;104634;1273;61912;-24
2022/09/30 03:35:38;;;;;;;4.10;3.30;;;;;;;11.67;86.11;98308.40;104782;1271;75510;-24
2022/09/30 03:38:22;;;;;;;4.30;3.10;;;;;;;11.57;86.06;98315.41;105016;1270;77084;-23
2022/09/30 03:40:59;;;;;;;3.60;3.20;;;;;;;11.29;86.87;98316.20;104884;1273;74570;-23
2022/09/30 03:43:33;;;;;;;3.00;2.30;;;;;;;11.00;88.57;98321.77;105096;1271;62938;-23
2022/09/30 03:46:21;;;;;;;3.70;2.60;;;;;;;11.37;87.47;98325.36;105043;1273;61780;-23
2022/09/30 03:48:50;;;;;;;3.70;2.70;;;;;;;11.63;85.77;98331.51;105080;1271;75547;-23
2022/09/30 03:51:17;;;;;;;3.20;2.90;;;;;;;11.57;85.68;98334.69;104814;1273;75635;-23
2022/09/30 03:53:47;;;;;;;5.30;3.50;;;;;;;11.30;86.57;98343.05;104990;1271;75392;-23
2022/09/30 03:56:14;;;;;;;2.40;1.90;;;;;;;11.03;87.75;98343.65;104810;1273;64578;-23
2022/09/30 03:58:46;;;;;;;5.90;2.50;;;;;;;11.23;87.50;98347.31;105071;1271;61978;-23
2022/09/30 04:01:18;;;;;;;4.90;3.30;;;;;;;11.55;85.88;98345.48;105083;1270;76610;-23
2022/09/30 04:03:51;;;;;;;3.50;3.00;;;;;;;11.43;86.05;98347.17;104652;1273;76102;-23
2022/09/30 04:06:20;;;;;;;4.30;3.20;;;;;;;11.28;86.78;98351.76;104935;1274;74395;-23
2022/09/30 04:08:47;;;;;;;2.10;1.80;;;;;;;11.14;87.17;98354.41;104724;1270;63069;-23
2022/09/30 04:11:14;;;;;;;5.10;2.40;;;;;;;11.50;86.48;98355.20;104804;1271;63400;-23
2022/09/30 04:13:41;;;;;;;4.20;3.20;;;;;;;11.91;84.20;98357.14;104729;1271;76617;-23
2022/09/30 04:16:08;;;;;;;4.20;3.20;;;;;;;11.89;83.51;98360.48;104882;1271;77020;-24
2022/09/30 04:18:37;;;;;;;4.50;3.30;;;;;;;11.63;83.88;98370.95;104772;1271;75701;-23
2022/09/30 04:21:08;;;;;;;5.00;3.80;;;;;;;11.37;85.16;98379.55;104913;1271;61967;-23
2022/09/30 04:23:36;;;;;;;2.50;2.30;;;;;;;11.07;86.94;98387.45;104763;1271;61960;-23
2022/09/30 04:26:04;;;;;;;2.70;2.50;;;;;;;11.38;86.33;98388.95;105093;1271;75512;-23
2022/09/30 04:28:32;;;;;;;4.90;3.20;;;;;;;11.68;84.54;98385.82;104800;1271;77301;-23
2022/09/30 04:31:00;;;;;;;4.90;3.00;;;;;;;11.60;84.41;98390.44;104626;1271;75302;-23
2022/09/30 04:33:27;;;;;;;4.10;3.70;;;;;;;11.41;85.13;98389.05;104662;1271;63141;-23
2022/09/30 04:35:55;;;;;;;4.70;3.70;;;;;;;11.16;85.95;98393.71;105069;1271;63348;-23
2022/09/30 04:38:23;;;;;;;3.60;2.70;;;;;;;10.95;86.96;98391.13;104953;1271;76623;-23
2022/09/30 04:40:51;;;;;;;3.70;2.70;;;;;;;11.33;86.61;98391.07;104785;1271;75879;-23
2022/09/30 04:43:18;;;;;;;4.30;3.50;;;;;;;11.78;84.41;98391.14;104667;1271;75508;-24
2022/09/30 04:45:45;;;;;;;4.70;3.20;;;;;;;11.77;83.70;98395.23;104910;1270;61183;-23
2022/09/30 04:48:13;;;;;;;4.10;3.30;;;;;;;11.52;84.58;98399.20;104832;1271;61834;-22
2022/09/30 04:50:40;;;;;;;4.20;3.70;;;;;;;11.31;85.54;98395.39;104842;1272;76630;-22
2022/09/30 04:53:08;;;;;;;6.20;2.20;;;;;;;11.18;86.24;98395.25;105008;1268;76407;-22
2022/09/30 04:55:35;;;;;;;2.40;2.10;;;;;;;11.65;85.54;98398.50;105098;1273;75480;-22
2022/09/30 04:58:03;;;;;;;2.80;2.40;;;;;;;12.10;83.04;98399.00;105268;1271;62075;-22
2022/09/30 05:00:30;;;;;;;3.90;3.10;;;;;;;12.13;82.30;98400.81;104813;1271;61890;-22
2022/09/30 05:02:57;;;;;;;4.30;3.20;;;;;;;11.94;82.70;98403.84;104892;1270;76337;-22
2022/09/30 05:05:24;;;;;;;3.70;3.30;;;;;;;11.70;83.53;98404.77;105115;1270;77035;-22
2022/09/30 05:07:51;;;;;;;3.00;2.10;;;;;;;11.48;84.48;98404.92;104846;1272;75287;-22
2022/09/30 05:10:19;;;;;;;2.50;2.30;;;;;;;11.81;84.10;98406.84;104889;1271;63007;-22
2022/09/30 05:12:46;;;;;;;4.30;3.20;;;;;;;12.28;82.75;98407.20;104890;1271;63041;-22
2022/09/30 05:15:13;;;;;;;3.50;2.70;;;;;;;12.30;81.75;98409.81;104917;1271;76555;-22
2022/09/30 05:17:40;;;;;;;4.30;3.00;;;;;;;12.16;82.17;98411.88;104735;1273;77129;-22
2022/09/30 05:20:09;;;;;;;3.90;3.40;;;;;;;11.93;82.65;98414.36;104940;1270;75425;-22
2022/09/30 05:22:37;;;;;;;2.40;2.10;;;;;;;11.79;83.38;98421.16;104883;1271;63686;-22
2022/09/30 05:25:05;;;;;;;3.00;2.00;;;;;;;12.23;82.99;98425.96;104958;1271;61570;-22
2022/09/30 05:27:32;;;;;;;4.50;2.90;;;;;;;12.72;80.97;98431.98;105016;1271;77005;-22
2022/09/30 05:29:59;;;;;;;3.80;3.30;;;;;;;12.74;80.23;98433.83;105007;1271;76985;-22
2022/09/30 05:32:26;;;;;;;4.60;3.40;;;;;;;12.57;80.62;98434.76;105029;1268;75351;-22
2022/09/30 05:34:56;;;;;;;4.10;3.60;;;;;;;12.36;81.66;98434.99;104974;1271;61761;-22
2022/09/30 05:37:23;;;;;;;4.80;3.90;;;;;;;12.11;82.85;98443.70;104675;1270;60965;-23
2022/09/30 05:39:50;;;;;;;3.40;1.80;;;;;;;11.93;83.57;98450.23;104905;1270;75405;-22
2022/09/30 05:42:17;;;;;;;3.50;3.10;;;;;;;12.45;82.90;98462.47;104767;1273;76971;-22
2022/09/30 05:44:45;;;;;;;4.20;3.20;;;;;;;12.88;80.45;98471.91;104814;1271;75249;-22
2022/09/30 05:47:12;;;;;;;5.00;3.40;;;;;;;12.87;80.07;98481.67;104909;1268;62837;-23
2022/09/30 05:49:40;;;;;;;4.90;3.80;;;;;;;12.53;80.64;98480.30;104867;1271;61945;-22
2022/09/30 05:52:07;;;;;;;3.70;3.30;;;;;;;12.17;82.85;98486.61;105129;1271;74250;-22
2022/09/30 05:54:35;;;;;;;4.30;3.80;;;;;;;12.03;83.82;98484.98;104968;1271;76854;-22
2022/09/30 05:57:02;;;;;;;2.20;2.00;;;;;;;11.82;85.00;98486.19;105071;1271;73834;-22
2022/09/30 05:59:29;;;;;;;3.80;2.80;;;;;;;12.18;84.27;98484.75;105199;1270;61902;-22
2022/09/30 06:01:56;;;;;;;4.20;3.20;;;;;;;12.60;82.65;98486.61;105044;1271;63301;-22
2022/09/30 06:04:23;;;;;;;3.40;3.00;;;;;;;12.61;82.08;98489.54;105172;1271;75369;-22
2022/09/30 06:06:50;;;;;;;4.20;3.20;;;;;;;12.40;83.10;98495.47;105074;1271;77030;-23
2022/09/30 06:09:17;;;;;;;4.10;3.40;;;;;;;12.16;84.19;98497.64;105120;1270;75366;-23
2022/09/30 06:11:44;;;;;;;2.40;2.20;;;;;;;11.97;84.66;98498.73;105143;1271;63552;-23
2022/09/30 06:14:12;;;;;;;6.20;2.80;;;;;;;12.16;83.69;98502.67;105187;1271;63053;-23
2022/09/30 06:16:39;;;;;;;3.40;2.80;;;;;;;12.50;82.62;98513.01;105211;1270;75297;-23
2022/09/30 06:19:06;;;;;;;4.60;3.00;;;;;;;12.43;82.40;98519.18;105181;1271;76589;-23
2022/09/30 06:21:33;;;;;;;3.50;3.00;;;;;;;12.14;83.61;98516.30;105184;1268;74169;-23
2022/09/30 06:24:00;;;;;;;4.20;3.70;;;;;;;11.95;85.21;98508.48;105169;1270;61852;-22
2022/09/30 06:26:27;;;;;;;5.30;2.20;;;;;;;11.92;85.45;98507.50;105106;1271;61110;-22
2022/09/30 06:28:54;;;;;;;5.60;3.30;;;;;;;12.24;85.09;98500.55;105067;1268;76341;-22
2022/09/30 06:31:21;;;;;;;5.70;3.10;;;;;;;12.83;82.39;98504.21;105160;1268;77294;-23
2022/09/30 06:33:51;;;;;;;7.80;4.50;;;;;;;13.07;81.10;98511.02;105135;1270;74122;-23
2022/09/30 06:36:18;;;;;;;4.00;3.40;;;;;;;13.04;81.18;98519.14;104880;1271;62754;-22
2022/09/30 06:38:50;;;;;;;6.60;3.80;;;;;;;12.87;81.29;98524.13;104919;1271;62020;-23
2022/09/30 06:41:17;;;;;;;8.00;3.90;;;;;;;12.69;81.94;98531.12;104701;1271;76575;-23
2022/09/30 06:43:44;;;;;;;2.20;1.80;;;;;;;12.57;82.68;98528.35;104698;1273;76730;-23
2022/09/30 06:46:11;;;;;;;2.80;2.20;;;;;;;13.09;81.02;98531.91;104902;1271;75124;-23
2022/09/30 06:48:46;;;;;;;4.00;3.10;;;;;;;13.75;79.29;98536.31;105052;1271;61983;-23
2022/09/30 06:51:13;;;;;;;4.10;2.80;;;;;;;13.74;77.61;98542.69;105127;1268;63136;-23
2022/09/30 06:53:40;;;;;;;4.40;3.10;;;;;;;13.48;78.72;98544.45;105232;1268;75966;-23
2022/09/30 06:56:07;;;;;;;6.40;2.90;;;;;;;13.23;79.38;98543.21;104941;1268;76967;-23
2022/09/30 06:58:34;;;;;;;4.50;3.60;;;;;;;13.16;80.39;98544.83;104718;1273;74330;-24
2022/09/30 07:01:05;;;;;;;3.20;2.50;;;;;;;13.02;81.03;98547.65;104872;1268;63839;-23
2022/09/30 07:03:34;;;;;;;4.30;3.10;;;;;;;13.46;80.70;98552.16;103864;1273;1204789;-23
2022/09/30 07:06:03;;;;;;;5.10;3.10;;;;;;;13.81;78.26;98554.69;105026;1271;74482;-22
2022/09/30 07:08:30;;;;;;;3.80;3.20;;;;;;;13.75;78.37;98556.86;104805;1273;76715;-23
2022/09/30 07:10:58;;;;;;;7.00;3.00;;;;;;;13.53;78.19;98558.33;105254;1271;74019;-22
2022/09/30 07:13:25;;;;;;;5.20;3.90;;;;;;;13.37;79.48;98559.44;105062;1268;62834;-23
2022/09/30 07:15:53;;;;;;;5.20;4.10;;;;;;;13.15;80.45;98556.29;104855;1268;61927;-23
2022/09/30 07:18:21;;;;;;;3.20;2.50;;;;;;;12.82;81.69;98556.49;105055;1271;76286;-23
2022/09/30 07:20:52;;;;;;;3.40;3.10;;;;;;;13.26;80.94;98562.15;105105;1273;76791;-23
2022/09/30 07:23:19;;;;;;;3.90;3.40;;;;;;;13.64;78.44;98563.44;104945;1271;74413;-22
2022/09/30 07:25:55;;;;;;;5.00;3.60;;;;;;;13.80;77.93;98560.35;104997;1268;61978;-23
2022/09/30 07:28:29;;;;;;;4.40;3.60;;;;;;;13.62;78.33;98562.20;105071;1271;61100;-22
2022/09/30 07:30:56;;;;;;;;;;;;;;;13.34;79.15;98566.17;105151;1273;76572;-23
2022/09/30 07:33:43;;;;;;;5.00;4.10;;;;;;;13.20;79.92;98568.30;105107;1271;75959;-22
2022/09/30 07:36:11;;;;;;;4.20;2.40;;;;;;;13.03;80.60;98572.05;105029;1271;75127;-23
2022/09/30 07:38:39;;;;;;;3.00;2.60;;;;;;;13.55;79.00;98572.84;104965;1271;62342;-23
2022/09/30 07:41:09;;;;;;;3.70;3.30;;;;;;;14.14;76.45;98571.38;105090;1269;63043;-22
2022/09/30 07:43:37;;;;;;;5.50;4.30;;;;;;;14.17;75.83;98578.25;105139;1268;74328;-22
2022/09/30 07:46:10;;;;;;;6.40;4.50;;;;;;;13.56;78.17;98574.63;105118;1272;75964;-23
2022/09/30 07:48:50;;;;;;;10.30;6.10;;;;;;;13.16;78.90;98573.20;104911;1273;75158;-22
2022/09/30 07:51:22;;;;;;;28.50;17.10;;;;;;;13.05;80.68;98576.25;105114;1272;62051;-22
2022/09/30 07:53:51;;;;;;;7.30;4.70;;;;;;;12.80;82.16;98589.79;105117;1271;61854;-22
2022/09/30 07:56:18;;;;;;;4.70;3.60;;;;;;;13.36;79.80;98594.89;104866;1273;74321;-22
2022/09/30 07:58:45;;;;;;;4.90;3.80;;;;;;;13.92;77.31;98604.84;105159;1268;76683;-21
2022/09/30 08:01:12;;;;;;;4.90;3.60;;;;;;;13.56;77.16;98607.75;104721;1274;75322;-22
2022/09/30 08:03:41;;;;;;;5.10;3.90;;;;;;;13.78;77.93;98615.31;104783;1271;62061;-22
2022/09/30 08:06:13;;;;;;;4.40;4.00;;;;;;;13.71;77.88;98614.79;105002;1274;62113;-22
2022/09/30 08:08:42;;;;;;;5.60;4.10;;;;;;;13.63;78.05;98612.83;105132;1271;76534;-22
2022/09/30 08:11:10;;;;;;;4.40;2.50;;;;;;;13.57;78.68;98614.55;104902;1271;75984;-22
2022/09/30 08:13:37;;;;;;;3.20;2.80;;;;;;;14.09;77.88;98617.10;104754;1274;75401;-22
2022/09/30 08:16:05;;;;;;;4.20;3.70;;;;;;;14.62;76.34;98622.48;105102;1271;63161;-22
2022/09/30 08:18:32;;;;;;;4.70;3.90;;;;;;;14.78;75.43;98621.89;105124;1268;62892;-22
2022/09/30 08:21:03;;;;;;;4.70;4.00;;;;;;;14.70;74.95;98621.52;104977;1271;75478;-21
2022/09/30 08:23:32;;;;;;;5.60;3.90;;;;;;;14.46;75.38;98629.49;104519;1268;75947;-22
2022/09/30 08:26:10;;;;;;;9.40;4.40;;;;;;;14.27;76.20;98626.09;105116;1269;75597;-22
2022/09/30 08:28:37;;;;;;;5.80;4.70;;;;;;;14.14;76.74;98628.84;105084;1272;62776;-22
2022/09/30 08:31:26;;;;;;;4.60;2.70;;;;;;;14.14;76.66;98631.42;105068;1269;63089;-22
2022/09/30 08:33:55;;;;;;;4.10;3.20;;;;;;;14.73;74.77;98634.13;104866;1269;74338;-22
2022/09/30 08:36:23;;;;;;;4.90;3.90;;;;;;;15.18;73.50;98637.80;104697;1268;76099;-22
2022/09/30 08:38:50;;;;;;;6.70;5.00;;;;;;;15.06;73.06;98635.38;104847;1273;74308;-22
2022/09/30 08:41:56;;;;;;;5.30;4.80;;;;;;;14.21;74.76;98626.58;104913;1268;63145;-22
2022/09/30 08:44:34;;;;;;;5.10;4.20;;;;;;;14.24;76.17;98623.98;105077;1268;62816;-22
2022/09/30 08:47:28;;;;;;;5.20;4.40;;;;;;;14.37;75.76;98622.46;105111;1273;76684;-22
2022/09/30 08:50:14;;;;;;;24.70;15.00;;;;;;;13.89;76.79;98622.75;105096;1271;76987;-22
2022/09/30 08:52:44;;;;;;;4.60;3.90;;;;;;;13.95;78.23;98626.93;105054;1274;74175;-22
2022/09/30 08:55:22;;;;;;;5.10;4.10;;;;;;;14.82;75.34;98625.63;104913;1274;61998;-23
2022/09/30 08:57:49;;;;;;;6.00;3.80;;;;;;;15.01;72.99;98629.96;105045;1271;61905;-22
2022/09/30 09:00:17;;;;;;;4.40;3.90;;;;;;;14.94;72.61;98630.69;104999;1271;76558;-22
2022/09/30 09:02:49;;;;;;;5.10;4.20;;;;;;;14.84;72.81;98638.19;105005;1272;76958;-22
2022/09/30 09:05:40;;;;;;;5.00;4.20;;;;;;;14.82;73.83;98641.77;104830;1272;75518;-22
2022/09/30 09:08:17;;;;;;;5.30;4.70;;;;;;;14.52;73.56;98638.91;104912;1268;61918;-22
2022/09/30 09:10:45;;;;;;;4.60;4.10;;;;;;;14.10;75.83;98640.55;105080;1271;61892;-21
2022/09/30 09:13:22;;;;;;;4.30;3.80;;;;;;;14.43;75.11;98639.49;104875;1268;76832;-21
2022/09/30 09:15:53;;;;;;;2.70;2.10;;;;;;;14.60;74.46;98641.38;105071;1268;75021;-21
2022/09/30 09:18:37;;;;;;;2.90;2.60;;;;;;;15.36;73.09;98635.70;104965;1268;74210;-22
2022/09/30 09:21:28;;;;;;;3.90;3.20;;;;;;;15.94;70.44;98640.78;104883;1272;61904;-21
2022/09/30 09:23:56;;;;;;;3.90;3.50;;;;;;;15.89;70.17;98640.79;104973;1272;62001;-21
2022/09/30 09:26:24;;;;;;;4.70;4.20;;;;;;;15.59;70.73;98645.77;104817;1268;76846;-21
2022/09/30 09:29:05;;;;;;;5.40;4.30;;;;;;;15.47;71.13;98648.88;104862;1269;75951;-22
2022/09/30 09:31:32;;;;;;;4.60;3.90;;;;;;;15.30;71.59;98650.61;104769;1268;75551;-21
2022/09/30 09:34:07;;;;;;;5.50;4.70;;;;;;;15.27;71.97;98650.08;105063;1268;63115;-22
2022/09/30 09:36:37;;;;;;;4.90;4.00;;;;;;;15.07;72.48;98653.55;104924;1274;61645;-22
2022/09/30 09:39:25;;;;;;;4.80;4.30;;;;;;;14.97;73.39;98656.42;104760;1273;76676;-22
2022/09/30 09:42:31;;;;;;;4.90;3.00;;;;;;;15.09;72.92;98662.81;104624;1271;76964;-22
2022/09/30 09:45:01;;;;;;;4.20;3.00;;;;;;;16.15;70.36;98662.11;104848;1268;74376;-22
2022/09/30 09:47:29;;;;;;;3.80;3.00;;;;;;;16.82;68.84;98661.96;104767;1272;61955;-23
2022/09/30 09:50:05;;;;;;;5.40;4.60;;;;;;;17.02;66.63;98656.58;104889;1269;62097;-23
2022/09/30 09:53:04;;;;;;;11.80;5.00;;;;;;;16.92;66.93;98657.80;104939;1268;76699;-23
2022/09/30 09:55:31;;;;;;;5.40;4.90;;;;;;;16.79;67.94;98659.34;105132;1271;76947;-23
2022/09/30 09:58:15;;;;;;;6.40;4.80;;;;;;;16.83;67.90;98658.60;105136;1268;75141;-24
2022/09/30 10:03:22;;;;;;;5.30;4.80;;;;;;;16.94;67.02;98650.86;104928;1268;63218;-24
2022/09/30 10:06:04;;;;;;;6.00;4.80;;;;;;;17.02;66.72;98653.16;104933;1269;76370;-24
2022/09/30 10:08:52;;;;;;;5.70;5.10;;;;;;;17.07;66.96;98652.54;104800;1272;77024;-24
2022/09/30 10:11:26;;;;;;;5.60;5.00;;;;;;;16.86;67.38;98651.23;105094;1268;76167;-24
2022/09/30 10:13:56;;;;;;;6.10;4.90;;;;;;;16.83;67.28;98648.48;104734;1273;63094;-24
2022/09/30 10:16:36;;;;;;;6.20;5.40;;;;;;;16.64;66.25;98645.17;104795;1268;62874;-24
2022/09/30 10:19:15;;;;;;;7.40;4.60;;;;;;;16.79;67.32;98647.95;104920;1274;75571;-24
2022/09/30 10:21:42;;;;;;;6.60;4.90;;;;;;;17.05;66.10;98647.75;104788;1268;75924;-24
2022/09/30 10:24:27;;;;;;;4.70;4.20;;;;;;;17.00;66.36;98652.06;104780;1268;74291;-24
2022/09/30 10:26:55;;;;;;;4.30;3.80;;;;;;;17.08;66.32;98655.98;105085;1269;63109;-24
2022/09/30 10:29:33;;;;;;;6.10;4.70;;;;;;;17.05;67.05;98659.42;105100;1269;63053;-24
2022/09/30 10:32:05;;;;;;;6.50;4.90;;;;;;;16.89;67.79;98657.52;105060;1268;75323;-24
2022/09/30 10:34:35;;;;;;;5.60;5.10;;;;;;;16.70;68.40;98656.04;105147;1268;75496;-24
2022/09/30 10:37:15;;;;;;;5.10;4.40;;;;;;;16.40;68.53;98654.05;105036;1271;74801;-24
2022/09/30 10:39:43;;;;;;;8.20;4.90;;;;;;;16.31;69.68;98655.23;105085;1269;62807;-25
2022/09/30 10:42:20;;;;;;;4.90;3.90;;;;;;;16.17;69.85;98660.13;105174;1268;61700;-22
2022/09/30 10:44:56;;;;;;;6.90;4.20;;;;;;;16.08;70.14;98661.88;105035;1268;75427;-23
2022/09/30 10:47:27;;;;;;;5.50;4.50;;;;;;;16.05;69.65;98658.53;104946;1271;77028;-24
2022/09/30 10:50:10;;;;;;;2.90;2.50;;;;;;;16.07;70.65;98658.27;104636;1271;75418;-23
2022/09/30 10:52:48;;;;;;;6.50;3.10;;;;;;;16.65;69.18;98661.15;104502;1268;63327;-23
2022/09/30 10:55:18;;;;;;;3.80;3.40;;;;;;;17.22;67.71;98661.69;104755;1268;63110;-23
2022/09/30 10:57:45;;;;;;;4.40;3.60;;;;;;;17.37;66.41;98662.98;105114;1269;77010;-23
2022/09/30 11:00:20;;;;;;;5.30;3.70;;;;;;;17.19;64.90;98662.23;105122;1268;75912;-23
2022/09/30 11:02:56;;;;;;;4.90;3.40;;;;;;;17.07;66.53;98660.63;105133;1268;75368;-23
2022/09/30 11:05:37;;;;;;;5.00;3.70;;;;;;;16.90;66.83;98660.48;105025;1268;61862;-24
2022/09/30 11:08:10;;;;;;;4.90;3.70;;;;;;;16.75;67.29;98661.18;105149;1271;61140;-23
2022/09/30 11:10:50;;;;;;;5.40;3.90;;;;;;;16.63;68.13;98659.10;105125;1268;76557;-23
2022/09/30 11:13:20;;;;;;;4.50;4.00;;;;;;;16.36;69.49;98658.73;105127;1268;77033;-23
2022/09/30 11:16:00;;;;;;;6.70;4.20;;;;;;;16.34;69.26;98664.70;105152;1268;74293;-24
2022/09/30 11:18:52;;;;;;;5.70;3.70;;;;;;;16.24;69.16;98666.73;104992;1268;63206;-25
2022/09/30 11:21:33;;;;;;;4.50;3.90;;;;;;;16.13;69.11;98670.52;104821;1271;62971;-25
2022/09/30 11:24:05;;;;;;;2.90;2.60;;;;;;;16.17;69.61;98666.79;104828;1268;75471;-25
2022/09/30 11:26:36;;;;;;;3.60;3.00;;;;;;;16.79;68.95;98666.91;104836;1268;76658;-23
2022/09/30 11:29:37;;;;;;;4.10;2.80;;;;;;;17.25;66.51;98666.06;105150;1271;75649;-23
2022/09/30 11:32:23;;;;;;;4.80;3.30;;;;;;;17.34;66.48;98665.04;105102;1268;63179;-23
2022/09/30 11:35:17;;;;;;;5.20;4.00;;;;;;;17.07;66.66;98659.45;105054;1268;62751;-23
2022/09/30 11:37:56;;;;;;;4.80;3.60;;;;;;;16.77;67.56;98660.52;104992;1268;76481;-23
2022/09/30 11:40:28;;;;;;;4.80;3.70;;;;;;;16.59;68.98;98663.59;105144;1268;74663;-23
2022/09/30 11:43:07;;;;;;;8.10;4.20;;;;;;;16.50;69.59;98666.11;105123;1268;74779;-23
2022/09/30 11:45:45;;;;;;;4.60;3.80;;;;;;;16.47;69.33;98667.10;104860;1271;61968;-26
2022/09/30 11:48:34;;;;;;;4.60;3.80;;;;;;;16.50;68.80;98668.80;104812;1268;62756;-25
2022/09/30 11:51:23;;;;;;;4.00;3.60;;;;;;;16.46;69.57;98670.11;104887;1268;74963;-24
2022/09/30 11:54:01;;;;;;;4.30;2.90;;;;;;;16.41;68.91;98667.83;104741;1268;76994;-25